Cleveland, Ohio
Current Conditions -  °F | °C
As of 1:04 PM on Friday 19 Dec 2014 (Local Time) from KBKL Reporting Station
Overcast Overcast  
Wind Chill: 24°   Ceiling: 2800
Heat Index: 32°   Visibility: 10mi
Dew Point: 23°   Wind: 10mph
Humidity: 69%   Direction: 320°NW
Pressure: 30.23"   Gusts: NA
Location:  41.5°N, 81.69°W
Report Text: KBKL 191804Z 32009KT 10SM OVC028 00/M05 A3023 RMK AO2 T00001050
Loading
Personal Weather Stations






























Interactive Weather Map New forecast layout! Learn more

10-Day Weather Forecast

Advertisements
Track Severe Weather on mobile